createdAt,value
2019-02-22T00:00:37.433Z,32.97
2019-02-22T00:03:08.268Z,31.37
2019-02-22T00:05:37.204Z,36.57
2019-02-22T00:08:07.074Z,30.23
2019-02-22T00:10:37.558Z,28.40
2019-02-22T00:13:06.759Z,35.87
2019-02-22T00:15:37.633Z,64.77
2019-02-22T00:18:06.990Z,48.90
2019-02-22T00:20:35.733Z,38.83
2019-02-22T00:23:04.669Z,42.87
2019-02-22T00:25:33.819Z,39.27
2019-02-22T00:28:04.607Z,34.57
2019-02-22T00:30:33.991Z,36.20
2019-02-22T00:33:03.129Z,31.00
2019-02-22T00:35:32.961Z,26.40
2019-02-22T00:38:02.065Z,30.83
2019-02-22T00:40:32.874Z,28.80
2019-02-22T00:43:02.202Z,26.17
2019-02-22T00:45:31.806Z,31.43
2019-02-22T00:48:02.223Z,34.40
2019-02-22T00:50:32.394Z,27.17
2019-02-22T00:53:01.416Z,31.90
2019-02-22T00:56:05.846Z,28.50
2019-02-22T00:58:34.901Z,33.47
2019-02-22T01:01:05.289Z,31.30
2019-02-22T01:03:33.931Z,40.53
2019-02-22T01:06:02.931Z,28.70
2019-02-22T01:08:31.944Z,37.47
2019-02-22T01:11:02.081Z,34.40
2019-02-22T01:13:30.744Z,33.73
2019-02-22T01:16:00.277Z,26.70
2019-02-22T01:18:30.847Z,26.73
2019-02-22T01:21:01.255Z,31.23
2019-02-22T01:23:32.400Z,29.10
2019-02-22T01:26:01.741Z,29.53
2019-02-22T01:28:31.099Z,26.53
2019-02-22T01:31:00.165Z,35.70
2019-02-22T01:33:29.055Z,31.80
2019-02-22T01:35:58.341Z,30.17
2019-02-22T01:38:27.858Z,34.23
2019-02-22T01:40:56.680Z,33.60
2019-02-22T01:43:26.393Z,37.37
2019-02-22T01:45:56.766Z,32.50
2019-02-22T01:48:25.237Z,25.90
2019-02-22T01:50:53.644Z,25.47
2019-02-22T01:53:23.395Z,23.97
2019-02-22T01:55:52.627Z,23.20
2019-02-22T01:58:21.862Z,27.80
2019-02-22T02:00:51.280Z,35.83
2019-02-22T02:03:19.884Z,66.80
2019-02-22T02:05:48.860Z,40.77
2019-02-22T02:08:17.936Z,51.07
2019-02-22T02:10:53.917Z,40.67
2019-02-22T02:13:16.954Z,46.23
2019-02-22T02:15:45.512Z,39.30
2019-02-22T02:18:14.821Z,37.97
2019-02-22T02:20:54.050Z,37.37
2019-02-22T02:23:24.036Z,29.37
2019-02-22T02:25:52.839Z,20.63
2019-02-22T02:28:21.519Z,21.37
2019-02-22T02:30:50.861Z,17.07
2019-02-22T02:33:19.493Z,20.03
2019-02-22T02:35:48.001Z,21.67
2019-02-22T02:38:16.638Z,24.53
2019-02-22T02:40:46.440Z,43.13
2019-02-22T02:43:16.842Z,51.00
2019-02-22T02:45:47.320Z,37.73
2019-02-22T02:48:18.517Z,43.03
2019-02-22T02:50:48.860Z,26.93
2019-02-22T02:53:19.651Z,24.03
2019-02-22T02:55:49.022Z,18.80
2019-02-22T02:58:20.005Z,26.00
2019-02-22T03:00:50.811Z,27.07
2019-02-22T03:03:21.450Z,26.67
2019-02-22T03:06:15.353Z,32.50
2019-02-22T03:08:45.203Z,26.87
2019-02-22T03:11:20.656Z,23.30
2019-02-22T03:13:45.462Z,21.73
2019-02-22T03:16:15.862Z,28.90
2019-02-22T03:18:45.862Z,25.63
2019-02-22T03:21:17.088Z,34.37
2019-02-22T03:23:47.115Z,60.50
2019-02-22T03:26:16.658Z,31.53
2019-02-22T03:28:46.494Z,47.10
2019-02-22T03:31:18.178Z,41.43
2019-02-22T03:33:47.997Z,37.10
2019-02-22T03:36:18.318Z,32.70
2019-02-22T03:38:47.494Z,24.00
2019-02-22T03:41:19.673Z,19.70
2019-02-22T03:43:50.900Z,23.30
2019-02-22T03:46:21.954Z,30.77
2019-02-22T03:48:50.926Z,28.27
2019-02-22T03:51:20.453Z,25.87
2019-02-22T03:53:57.589Z,37.53
2019-02-22T03:56:29.203Z,44.23
2019-02-22T03:58:58.276Z,24.77
2019-02-22T04:01:28.181Z,25.83
2019-02-22T04:03:57.849Z,24.90
2019-02-22T04:06:27.482Z,29.87
2019-02-22T04:08:57.654Z,47.37
2019-02-22T04:11:29.679Z,37.90
2019-02-22T04:14:00.267Z,33.33
2019-02-22T04:16:30.662Z,36.80
2019-02-22T04:18:59.646Z,29.83
2019-02-22T04:21:29.023Z,32.63
2019-02-22T04:23:58.287Z,28.73
2019-02-22T04:26:28.053Z,30.57
2019-02-22T04:28:59.511Z,18.30
2019-02-22T04:31:28.911Z,20.57
2019-02-22T04:33:59.251Z,21.87
2019-02-22T04:36:29.135Z,35.83
2019-02-22T04:39:02.379Z,41.73
2019-02-22T04:41:33.546Z,27.07
2019-02-22T04:44:04.147Z,38.50
2019-02-22T04:46:33.548Z,44.10
2019-02-22T04:49:03.359Z,36.23
2019-02-22T04:51:33.909Z,38.17
2019-02-22T04:54:03.139Z,36.53
2019-02-22T04:56:31.709Z,43.80
2019-02-22T04:59:01.415Z,36.33
2019-02-22T05:01:30.644Z,28.43
2019-02-22T05:04:00.626Z,30.00
2019-02-22T05:06:30.041Z,36.33
2019-02-22T05:08:59.885Z,35.07
2019-02-22T05:11:29.554Z,28.80
2019-02-22T05:14:00.069Z,29.87
2019-02-22T05:16:30.311Z,26.17
2019-02-22T05:18:59.722Z,25.70
2019-02-22T05:21:30.814Z,26.40
2019-02-22T05:24:01.181Z,26.77
2019-02-22T05:26:32.006Z,27.00
2019-02-22T05:29:02.271Z,30.17
2019-02-22T05:31:31.674Z,36.03
2019-02-22T05:34:02.117Z,34.07
2019-02-22T05:36:33.061Z,34.20
2019-02-22T05:39:04.125Z,40.10
2019-02-22T05:41:34.103Z,46.07
2019-02-22T05:44:04.246Z,40.73
2019-02-22T05:46:33.670Z,41.67
2019-02-22T05:49:02.926Z,44.53
2019-02-22T05:51:33.891Z,39.93
2019-02-22T05:54:03.350Z,38.17
2019-02-22T05:56:33.734Z,40.00
2019-02-22T05:59:03.305Z,40.23
2019-02-22T06:01:32.881Z,38.33
2019-02-22T06:04:02.194Z,33.33
2019-02-22T06:06:32.086Z,31.77
2019-02-22T06:09:04.345Z,37.00
2019-02-22T06:11:37.366Z,35.33
2019-02-22T06:14:07.271Z,37.10
2019-02-22T06:16:45.106Z,33.60
2019-02-22T06:19:16.700Z,34.97
2019-02-22T06:21:48.731Z,29.93
2019-02-22T06:24:18.884Z,30.33
2019-02-22T06:26:48.434Z,28.87
2019-02-22T06:29:19.595Z,27.13
2019-02-22T06:31:50.984Z,29.70
2019-02-22T06:34:21.343Z,26.63
2019-02-22T06:37:01.687Z,22.77
2019-02-22T06:39:26.119Z,28.47
2019-02-22T06:41:56.090Z,28.30
2019-02-22T06:44:26.065Z,26.57
2019-02-22T06:46:55.430Z,33.00
2019-02-22T06:49:25.896Z,29.83
2019-02-22T06:51:55.674Z,30.43
2019-02-22T06:54:24.661Z,31.87
2019-02-22T06:56:55.379Z,25.43
2019-02-22T06:59:24.826Z,27.60
2019-02-22T07:01:55.056Z,32.43
2019-02-22T07:04:24.052Z,31.77
2019-02-22T07:06:53.727Z,45.60
2019-02-22T07:09:24.367Z,46.57
2019-02-22T07:12:04.731Z,33.43
2019-02-22T07:14:34.423Z,32.97
2019-02-22T07:17:04.809Z,29.80
2019-02-22T07:19:36.018Z,31.57
2019-02-22T07:22:06.642Z,28.80
2019-02-22T07:24:36.160Z,28.10
2019-02-22T07:27:06.297Z,35.83
2019-02-22T07:29:35.079Z,39.33
2019-02-22T07:32:06.125Z,26.63
2019-02-22T07:34:35.514Z,25.80
2019-02-22T07:37:05.244Z,29.47
2019-02-22T07:39:35.859Z,27.23
2019-02-22T07:42:04.848Z,26.30
2019-02-22T07:44:34.266Z,22.33
2019-02-22T07:47:04.741Z,24.43
2019-02-22T07:49:34.527Z,23.87
2019-02-22T07:52:04.964Z,26.70
2019-02-22T07:54:34.864Z,21.23
2019-02-22T07:57:05.154Z,22.83
2019-02-22T07:59:35.555Z,18.90
2019-02-22T08:02:07.094Z,23.33
2019-02-22T08:04:37.259Z,19.70
2019-02-22T08:07:06.206Z,24.37
2019-02-22T08:09:35.606Z,21.13
2019-02-22T08:12:05.484Z,18.33
2019-02-22T08:14:36.449Z,17.47
2019-02-22T08:17:06.405Z,15.50
2019-02-22T08:19:36.541Z,19.03
2019-02-22T08:22:06.965Z,16.50
2019-02-22T08:24:37.776Z,16.77
2019-02-22T08:27:09.349Z,17.17
2019-02-22T08:29:39.740Z,15.97
2019-02-22T08:32:09.814Z,17.60
2019-02-22T08:34:40.609Z,15.23
2019-02-22T08:37:10.406Z,18.43
2019-02-22T08:39:39.783Z,16.43
2019-02-22T08:42:09.496Z,12.73
2019-02-22T08:44:38.704Z,14.33
2019-02-22T08:47:09.294Z,17.50
2019-02-22T08:49:39.224Z,15.20
2019-02-22T08:52:09.592Z,16.80
2019-02-22T08:54:47.096Z,18.70
2019-02-22T08:57:14.261Z,25.17
2019-02-22T08:59:43.919Z,30.77
2019-02-22T09:02:13.697Z,17.43
2019-02-22T09:04:43.969Z,17.97
2019-02-22T09:07:14.344Z,23.37
2019-02-22T09:09:44.386Z,21.80
2019-02-22T09:12:14.644Z,16.10
2019-02-22T09:14:45.044Z,16.80
2019-02-22T09:17:14.687Z,16.00
2019-02-22T09:19:44.876Z,19.80
2019-02-22T09:22:22.294Z,16.83
2019-02-22T09:24:45.729Z,17.37
2019-02-22T09:27:15.429Z,21.17
2019-02-22T09:29:44.431Z,21.27
2019-02-22T09:32:13.206Z,18.13
2019-02-22T09:34:43.173Z,21.43
2019-02-22T09:37:12.777Z,17.50
2019-02-22T09:39:42.699Z,17.60
2019-02-22T09:42:12.388Z,18.43
2019-02-22T09:44:41.631Z,19.87
2019-02-22T09:47:11.722Z,16.90
2019-02-22T09:49:40.586Z,15.83
2019-02-22T09:52:13.134Z,18.47
2019-02-22T09:54:43.350Z,18.87
2019-02-22T09:57:14.066Z,22.87
2019-02-22T09:59:43.306Z,16.00
2019-02-22T10:02:12.676Z,21.77
2019-02-22T10:04:42.290Z,31.33
2019-02-22T10:07:12.599Z,17.07
2019-02-22T10:09:43.134Z,20.17
2019-02-22T10:12:13.216Z,16.73
2019-02-22T10:14:43.658Z,16.37
2019-02-22T10:17:14.084Z,17.77
2019-02-22T10:19:44.521Z,21.40
2019-02-22T10:22:14.908Z,18.17
2019-02-22T10:24:45.526Z,19.27
2019-02-22T10:27:16.741Z,14.90
2019-02-22T10:29:46.050Z,16.53
2019-02-22T10:32:18.252Z,17.40
2019-02-22T10:34:49.289Z,18.23
2019-02-22T10:37:18.686Z,21.00
2019-02-22T10:39:50.234Z,16.12
2019-02-22T10:42:22.385Z,19.37
2019-02-22T10:44:52.890Z,14.00
2019-02-22T10:47:23.222Z,17.55
2019-02-22T10:49:55.707Z,37.45
2019-02-22T10:52:26.116Z,19.80
2019-02-22T10:54:56.566Z,15.85
2019-02-22T10:57:27.314Z,12.93
2019-02-22T10:59:58.057Z,17.20
2019-02-22T11:02:31.216Z,14.50
2019-02-22T11:05:02.894Z,20.52
2019-02-22T11:07:33.251Z,18.40
2019-02-22T11:10:05.764Z,17.53
2019-02-22T11:12:39.246Z,17.43
2019-02-22T11:15:11.612Z,16.00
2019-02-22T11:17:41.745Z,14.67
2019-02-22T11:20:12.967Z,18.57
2019-02-22T11:22:43.807Z,18.53
2019-02-22T11:25:14.000Z,21.57
2019-02-22T11:27:46.216Z,20.97
2019-02-22T11:30:16.536Z,18.60
2019-02-22T11:32:46.991Z,15.30
2019-02-22T11:35:16.827Z,18.65
2019-02-22T11:37:48.285Z,18.13
2019-02-22T11:40:20.107Z,15.40
2019-02-22T11:42:50.146Z,16.83
2019-02-22T11:45:19.189Z,18.20
2019-02-22T11:47:49.434Z,17.57
2019-02-22T11:50:19.708Z,14.90
2019-02-22T11:52:49.024Z,22.40
2019-02-22T11:55:19.942Z,17.20
2019-02-22T11:57:51.487Z,16.15
2019-02-22T12:00:21.788Z,14.40
2019-02-22T12:02:50.867Z,16.00
2019-02-22T12:05:20.348Z,23.20
2019-02-22T12:07:50.731Z,18.27
2019-02-22T12:10:21.597Z,16.40
2019-02-22T12:12:52.300Z,13.13
2019-02-22T12:15:22.041Z,17.48
2019-02-22T12:17:51.300Z,14.65
2019-02-22T12:20:21.350Z,20.68
2019-02-22T12:22:51.213Z,16.93
2019-02-22T12:25:21.011Z,14.73
2019-02-22T12:27:50.652Z,24.98
2019-02-22T12:30:20.431Z,14.50
2019-02-22T12:32:51.293Z,19.90
2019-02-22T12:35:20.447Z,16.10
2019-02-22T12:37:49.589Z,17.83
2019-02-22T12:40:18.834Z,17.87
2019-02-22T12:42:49.010Z,18.07
2019-02-22T12:45:18.596Z,15.48
2019-02-22T12:47:47.578Z,17.45
2019-02-22T12:50:17.132Z,20.10
2019-02-22T12:52:46.101Z,20.90
2019-02-22T12:55:17.106Z,26.25
2019-02-22T12:57:48.266Z,28.80
2019-02-22T13:00:21.913Z,14.95
2019-02-22T13:03:01.491Z,14.80
2019-02-22T13:05:24.855Z,15.55
2019-02-22T13:07:56.165Z,16.95
2019-02-22T13:10:26.410Z,16.70
2019-02-22T13:12:56.224Z,21.97
2019-02-22T13:15:37.869Z,24.40
2019-02-22T13:18:10.523Z,23.57
2019-02-22T13:20:41.166Z,19.37
2019-02-22T13:23:10.490Z,20.08
2019-02-22T13:25:40.562Z,17.85
2019-02-22T13:28:10.973Z,17.98
2019-02-22T13:30:40.251Z,19.02
2019-02-22T13:33:10.277Z,16.27
2019-02-22T13:35:40.216Z,15.13
2019-02-22T13:38:11.699Z,19.52
2019-02-22T13:40:43.102Z,20.70
2019-02-22T13:43:13.518Z,24.00
2019-02-22T13:45:43.156Z,19.30
2019-02-22T13:48:13.559Z,19.77
2019-02-22T13:50:43.521Z,17.40
2019-02-22T13:53:14.407Z,18.23
2019-02-22T13:55:46.009Z,22.77
2019-02-22T13:58:15.583Z,14.93
2019-02-22T14:00:45.366Z,21.03
2019-02-22T14:03:16.219Z,23.25
2019-02-22T14:05:46.050Z,18.03
2019-02-22T14:08:16.197Z,16.82
2019-02-22T14:10:45.995Z,21.00
2019-02-22T14:13:16.038Z,25.40
2019-02-22T14:15:46.672Z,18.55
2019-02-22T14:18:15.640Z,18.05
2019-02-22T14:20:46.780Z,18.85
2019-02-22T14:23:16.414Z,36.00
2019-02-22T14:25:47.166Z,21.55
2019-02-22T14:28:18.195Z,20.17
2019-02-22T14:30:50.852Z,20.57
2019-02-22T14:33:20.713Z,21.52
2019-02-22T14:35:51.284Z,20.75
2019-02-22T14:38:20.450Z,27.55
2019-02-22T14:40:49.220Z,22.87
2019-02-22T14:43:18.722Z,21.85
2019-02-22T14:45:52.214Z,23.30
2019-02-22T14:48:21.176Z,19.57
2019-02-22T14:50:50.794Z,32.28
2019-02-22T14:53:21.204Z,25.67
2019-02-22T14:55:52.011Z,20.52
2019-02-22T14:58:22.859Z,27.75
2019-02-22T15:00:51.735Z,28.90
2019-02-22T15:03:22.576Z,18.95
2019-02-22T15:05:56.207Z,24.80
2019-02-22T15:08:27.336Z,38.88
2019-02-22T15:10:58.332Z,26.25
2019-02-22T15:13:28.249Z,33.73
2019-02-22T15:16:30.084Z,51.95
2019-02-22T15:19:00.171Z,118.73
2019-02-22T15:21:34.355Z,28.73
2019-02-22T15:24:02.531Z,26.70
2019-02-22T15:26:31.544Z,24.80
2019-02-22T15:29:02.314Z,20.90
2019-02-22T15:31:36.053Z,24.40
2019-02-22T15:34:08.329Z,29.23
2019-02-22T15:36:37.685Z,34.53
2019-02-22T15:39:07.139Z,29.17
2019-02-22T15:41:36.974Z,20.73
2019-02-22T15:44:06.570Z,20.43
2019-02-22T15:46:37.196Z,19.30
2019-02-22T15:49:06.432Z,33.17
2019-02-22T15:51:39.672Z,19.63
2019-02-22T15:54:09.968Z,21.67
2019-02-22T15:56:39.667Z,26.60
2019-02-22T15:59:10.853Z,24.83
2019-02-22T16:01:39.524Z,22.03
2019-02-22T16:04:45.185Z,38.47
2019-02-22T16:07:15.396Z,29.07
2019-02-22T16:09:45.946Z,31.20
2019-02-22T16:12:19.564Z,20.77
2019-02-22T16:14:48.988Z,24.23
2019-02-22T16:17:18.979Z,24.03
2019-02-22T16:19:51.479Z,22.50
2019-02-22T16:22:22.258Z,20.83
2019-02-22T16:24:52.774Z,21.10
2019-02-22T16:27:23.374Z,26.80
2019-02-22T16:29:53.707Z,23.63
2019-02-22T16:32:25.150Z,23.27
2019-02-22T16:34:55.488Z,21.00
2019-02-22T16:37:25.976Z,21.20
2019-02-22T16:39:56.672Z,23.93
2019-02-22T16:42:28.331Z,27.57
2019-02-22T16:44:59.079Z,31.37
2019-02-22T16:47:39.595Z,37.20
2019-02-22T16:50:01.617Z,36.60
2019-02-22T16:52:33.670Z,52.63
2019-02-22T16:55:06.286Z,51.60
2019-02-22T16:57:38.796Z,134.03
2019-02-22T17:00:10.888Z,100.90
2019-02-22T17:02:41.817Z,39.90
2019-02-22T17:05:14.941Z,33.40
2019-02-22T17:07:47.344Z,35.53
2019-02-22T17:10:20.480Z,33.63
2019-02-22T17:12:51.307Z,31.43
2019-02-22T17:15:22.791Z,40.90
2019-02-22T17:17:56.469Z,32.10
2019-02-22T17:20:26.537Z,32.97
2019-02-22T17:22:59.182Z,36.23
2019-02-22T17:25:35.527Z,34.83
2019-02-22T17:28:07.359Z,29.63
2019-02-22T17:30:37.795Z,28.17
2019-02-22T17:33:09.619Z,27.27
2019-02-22T17:35:39.903Z,29.90
2019-02-22T17:38:11.773Z,32.73
2019-02-22T17:40:44.604Z,32.80
2019-02-22T17:43:17.487Z,35.43
2019-02-22T17:45:48.091Z,37.93
2019-02-22T17:48:20.927Z,39.20
2019-02-22T17:50:52.746Z,37.07
2019-02-22T17:53:24.803Z,30.40
2019-02-22T17:55:58.456Z,29.03
2019-02-22T17:58:29.215Z,24.30
2019-02-22T18:01:01.116Z,28.47
2019-02-22T18:03:32.416Z,24.33
2019-02-22T18:06:02.284Z,25.07
2019-02-22T18:08:32.579Z,25.07
2019-02-22T18:11:01.813Z,22.43
2019-02-22T18:13:31.446Z,25.40
2019-02-22T18:16:01.458Z,24.80
2019-02-22T18:18:32.239Z,24.03
2019-02-22T18:21:04.065Z,27.67
2019-02-22T18:23:34.058Z,27.53
2019-02-22T18:26:05.261Z,24.87
2019-02-22T18:28:36.887Z,28.43
2019-02-22T18:31:07.278Z,46.43
2019-02-22T18:33:39.740Z,22.43
2019-02-22T18:36:10.077Z,23.97
2019-02-22T18:38:41.160Z,21.33
2019-02-22T18:41:10.617Z,22.63
2019-02-22T18:43:41.122Z,21.87
2019-02-22T18:46:11.033Z,26.43
2019-02-22T18:48:43.712Z,36.07
2019-02-22T18:51:14.881Z,25.17
2019-02-22T18:53:45.856Z,26.77
2019-02-22T18:56:15.217Z,30.83
2019-02-22T18:58:44.387Z,24.13
2019-02-22T19:01:15.595Z,25.10
2019-02-22T19:03:44.919Z,29.07
2019-02-22T19:06:16.654Z,28.77
2019-02-22T19:08:46.851Z,27.80
2019-02-22T19:11:16.987Z,31.33
2019-02-22T19:13:46.079Z,34.20
2019-02-22T19:16:16.124Z,28.83
2019-02-22T19:18:46.019Z,36.43
2019-02-22T19:21:17.974Z,39.13
2019-02-22T19:23:47.539Z,35.47
2019-02-22T19:26:17.357Z,31.27
2019-02-22T19:28:48.047Z,33.97
2019-02-22T19:31:17.858Z,39.80
2019-02-22T19:33:49.931Z,29.80
2019-02-22T19:36:20.269Z,35.03
2019-02-22T19:38:50.902Z,35.53
2019-02-22T19:41:25.028Z,34.53
2019-02-22T19:43:55.814Z,29.60
2019-02-22T19:46:30.780Z,32.53
2019-02-22T19:49:07.254Z,31.23
2019-02-22T19:51:38.439Z,30.53
2019-02-22T19:54:08.926Z,32.10
2019-02-22T19:56:40.085Z,27.57
2019-02-22T19:59:14.721Z,30.20
2019-02-22T20:01:45.580Z,28.47
2019-02-22T20:04:14.624Z,30.33
2019-02-22T20:06:45.741Z,31.63
2019-02-22T20:09:15.974Z,33.10
2019-02-22T20:11:48.688Z,35.33
2019-02-22T20:14:19.498Z,29.60
2019-02-22T20:16:54.146Z,36.50
2019-02-22T20:19:24.063Z,32.93
2019-02-22T20:21:56.269Z,34.77
2019-02-22T20:24:26.755Z,31.20
2019-02-22T20:26:58.594Z,40.97
2019-02-22T20:29:28.119Z,38.60
2019-02-22T20:31:57.522Z,32.40
2019-02-22T20:34:28.662Z,31.97
2019-02-22T20:36:58.697Z,35.63
2019-02-22T20:39:29.976Z,32.27
2019-02-22T20:42:00.233Z,36.17
2019-02-22T20:44:30.078Z,33.07
2019-02-22T20:47:01.598Z,35.23
2019-02-22T20:49:34.731Z,31.53
2019-02-22T20:52:09.481Z,39.10
2019-02-22T20:54:39.774Z,34.27
2019-02-22T20:57:11.827Z,41.10
2019-02-22T20:59:40.905Z,37.83
2019-02-22T21:02:13.376Z,30.80
2019-02-22T21:04:42.519Z,37.00
2019-02-22T21:07:13.194Z,35.67
2019-02-22T21:09:43.064Z,36.50
2019-02-22T21:12:14.161Z,44.77
2019-02-22T21:14:44.520Z,42.10
2019-02-22T21:17:16.412Z,44.20
2019-02-22T21:19:48.655Z,34.13
2019-02-22T21:22:19.219Z,33.33
2019-02-22T21:24:50.036Z,38.40
2019-02-22T21:27:19.673Z,37.83
2019-02-22T21:29:49.257Z,34.90
2019-02-22T21:32:21.726Z,34.20
2019-02-22T21:34:51.513Z,38.30
2019-02-22T21:37:20.944Z,34.90
2019-02-22T21:39:50.783Z,34.17
2019-02-22T21:42:24.138Z,35.10
2019-02-22T21:44:54.604Z,30.27
2019-02-22T21:47:28.641Z,30.73
2019-02-22T21:49:59.945Z,31.30
2019-02-22T21:52:30.707Z,35.10
2019-02-22T21:55:00.397Z,27.23
2019-02-22T21:57:30.978Z,28.67
2019-02-22T22:00:01.584Z,27.00
2019-02-22T22:02:34.272Z,22.03
2019-02-22T22:05:08.819Z,25.33
2019-02-22T22:07:40.627Z,23.83
2019-02-22T22:10:12.139Z,22.67
2019-02-22T22:12:42.794Z,22.63
2019-02-22T22:15:14.385Z,20.00
2019-02-22T22:17:45.952Z,19.90
2019-02-22T22:20:15.942Z,20.23
2019-02-22T22:22:46.354Z,26.17
2019-02-22T22:25:17.471Z,23.43
2019-02-22T22:27:49.223Z,24.37
2019-02-22T22:30:19.131Z,26.37
2019-02-22T22:32:52.519Z,43.67
2019-02-22T22:35:21.201Z,24.33
2019-02-22T22:37:51.656Z,18.97
2019-02-22T22:40:23.288Z,18.00
2019-02-22T22:42:52.407Z,21.43
2019-02-22T22:45:22.702Z,18.30
2019-02-22T22:47:52.544Z,15.57
2019-02-22T22:50:22.586Z,16.37
2019-02-22T22:52:51.620Z,17.67
2019-02-22T22:55:21.935Z,18.90
2019-02-22T22:57:50.771Z,19.73
2019-02-22T23:01:01.655Z,15.17
2019-02-22T23:03:32.099Z,15.10
2019-02-22T23:06:02.645Z,16.07
2019-02-22T23:08:32.001Z,15.07
2019-02-22T23:11:01.266Z,13.73
2019-02-22T23:13:32.360Z,15.57
2019-02-22T23:16:02.906Z,12.80
2019-02-22T23:18:33.800Z,15.53
2019-02-22T23:21:03.843Z,12.93
2019-02-22T23:23:33.079Z,13.30
2019-02-22T23:26:03.451Z,12.90
2019-02-22T23:28:33.976Z,16.77
2019-02-22T23:31:03.429Z,16.73
2019-02-22T23:33:34.695Z,14.17
2019-02-22T23:36:03.868Z,12.87
2019-02-22T23:38:33.113Z,14.40
2019-02-22T23:41:04.126Z,14.87
2019-02-22T23:43:34.628Z,14.30
2019-02-22T23:46:04.246Z,12.60
2019-02-22T23:48:33.666Z,15.30
2019-02-22T23:51:03.787Z,11.53
2019-02-22T23:53:33.514Z,10.77
2019-02-22T23:56:03.294Z,12.57
2019-02-22T23:58:32.996Z,12.30
